sensor_id;sensor_type;location;lat;lon;timestamp;P1;durP1;ratioP1;P2;durP2;ratioP2
18931;SDS011;9598;50.954;3.112;2022-12-29T00:04:52;1.10;;;0.70;;
18931;SDS011;9598;50.954;3.112;2022-12-29T00:09:56;1.58;;;1.00;;
18931;SDS011;9598;50.954;3.112;2022-12-29T00:14:58;1.65;;;0.95;;
18931;SDS011;9598;50.954;3.112;2022-12-29T00:20:17;1.13;;;1.00;;
18931;SDS011;9598;50.954;3.112;2022-12-29T00:25:38;2.58;;;1.10;;
18931;SDS011;9598;50.954;3.112;2022-12-29T00:31:12;2.30;;;0.88;;
18931;SDS011;9598;50.954;3.112;2022-12-29T00:36:32;1.90;;;1.20;;
18931;SDS011;9598;50.954;3.112;2022-12-29T00:41:40;1.88;;;1.15;;
18931;SDS011;9598;50.954;3.112;2022-12-29T00:46:59;1.63;;;0.90;;
18931;SDS011;9598;50.954;3.112;2022-12-29T00:52:07;1.83;;;1.08;;
18931;SDS011;9598;50.954;3.112;2022-12-29T00:57:11;2.17;;;1.10;;
18931;SDS011;9598;50.954;3.112;2022-12-29T01:02:13;1.75;;;1.20;;
18931;SDS011;9598;50.954;3.112;2022-12-29T01:07:15;2.22;;;0.85;;
18931;SDS011;9598;50.954;3.112;2022-12-29T01:12:20;4.30;;;1.48;;
18931;SDS011;9598;50.954;3.112;2022-12-29T01:17:41;4.97;;;1.10;;
18931;SDS011;9598;50.954;3.112;2022-12-29T01:22:43;2.92;;;1.27;;
18931;SDS011;9598;50.954;3.112;2022-12-29T01:27:46;2.78;;;1.40;;
18931;SDS011;9598;50.954;3.112;2022-12-29T01:32:48;4.53;;;1.88;;
18931;SDS011;9598;50.954;3.112;2022-12-29T01:37:52;3.70;;;1.40;;
18931;SDS011;9598;50.954;3.112;2022-12-29T01:42:56;3.45;;;1.42;;
18931;SDS011;9598;50.954;3.112;2022-12-29T01:47:58;4.18;;;1.60;;
18931;SDS011;9598;50.954;3.112;2022-12-29T01:53:05;6.82;;;1.83;;
18931;SDS011;9598;50.954;3.112;2022-12-29T01:58:14;4.25;;;1.50;;
18931;SDS011;9598;50.954;3.112;2022-12-29T02:03:19;2.45;;;1.45;;
18931;SDS011;9598;50.954;3.112;2022-12-29T02:08:24;7.88;;;2.17;;
18931;SDS011;9598;50.954;3.112;2022-12-29T02:13:30;6.70;;;1.60;;
18931;SDS011;9598;50.954;3.112;2022-12-29T02:18:34;4.60;;;1.40;;
18931;SDS011;9598;50.954;3.112;2022-12-29T02:24:01;2.92;;;1.30;;
18931;SDS011;9598;50.954;3.112;2022-12-29T02:29:23;4.22;;;1.40;;
18931;SDS011;9598;50.954;3.112;2022-12-29T02:34:49;5.15;;;1.45;;
18931;SDS011;9598;50.954;3.112;2022-12-29T02:39:56;5.43;;;1.30;;
18931;SDS011;9598;50.954;3.112;2022-12-29T02:45:07;3.58;;;1.30;;
18931;SDS011;9598;50.954;3.112;2022-12-29T02:50:17;2.33;;;1.20;;
18931;SDS011;9598;50.954;3.112;2022-12-29T02:55:24;4.38;;;1.67;;
18931;SDS011;9598;50.954;3.112;2022-12-29T03:00:26;5.25;;;2.15;;
18931;SDS011;9598;50.954;3.112;2022-12-29T03:05:41;6.65;;;2.00;;
18931;SDS011;9598;50.954;3.112;2022-12-29T03:11:01;7.00;;;1.88;;
18931;SDS011;9598;50.954;3.112;2022-12-29T03:16:07;8.48;;;2.53;;
18931;SDS011;9598;50.954;3.112;2022-12-29T03:21:18;12.18;;;2.83;;
18931;SDS011;9598;50.954;3.112;2022-12-29T03:26:49;12.35;;;2.72;;
18931;SDS011;9598;50.954;3.112;2022-12-29T03:31:54;13.20;;;3.08;;
18931;SDS011;9598;50.954;3.112;2022-12-29T03:36:59;12.52;;;2.90;;
18931;SDS011;9598;50.954;3.112;2022-12-29T03:42:05;11.00;;;2.70;;
18931;SDS011;9598;50.954;3.112;2022-12-29T03:47:11;10.27;;;2.80;;
18931;SDS011;9598;50.954;3.112;2022-12-29T03:52:18;12.85;;;2.70;;
18931;SDS011;9598;50.954;3.112;2022-12-29T03:57:21;8.55;;;2.85;;
18931;SDS011;9598;50.954;3.112;2022-12-29T04:02:34;12.60;;;2.50;;
18931;SDS011;9598;50.954;3.112;2022-12-29T04:07:38;6.75;;;2.22;;
18931;SDS011;9598;50.954;3.112;2022-12-29T04:12:40;8.57;;;2.10;;
18931;SDS011;9598;50.954;3.112;2022-12-29T04:17:43;8.95;;;2.45;;
18931;SDS011;9598;50.954;3.112;2022-12-29T04:22:47;7.68;;;2.40;;
18931;SDS011;9598;50.954;3.112;2022-12-29T04:27:49;8.75;;;2.40;;
18931;SDS011;9598;50.954;3.112;2022-12-29T04:33:07;10.75;;;2.15;;
18931;SDS011;9598;50.954;3.112;2022-12-29T04:38:10;9.93;;;2.53;;
18931;SDS011;9598;50.954;3.112;2022-12-29T04:43:13;6.65;;;1.88;;
18931;SDS011;9598;50.954;3.112;2022-12-29T04:48:38;9.95;;;2.25;;
18931;SDS011;9598;50.954;3.112;2022-12-29T04:54:08;11.18;;;2.63;;
18931;SDS011;9598;50.954;3.112;2022-12-29T04:59:11;9.02;;;2.50;;
18931;SDS011;9598;50.954;3.112;2022-12-29T05:04:13;10.45;;;2.50;;
18931;SDS011;9598;50.954;3.112;2022-12-29T05:09:18;9.40;;;2.60;;
18931;SDS011;9598;50.954;3.112;2022-12-29T05:14:20;7.10;;;2.83;;
18931;SDS011;9598;50.954;3.112;2022-12-29T05:19:23;5.85;;;1.98;;
18931;SDS011;9598;50.954;3.112;2022-12-29T05:24:26;7.45;;;1.85;;
18931;SDS011;9598;50.954;3.112;2022-12-29T05:29:30;10.38;;;3.08;;
18931;SDS011;9598;50.954;3.112;2022-12-29T05:34:32;9.82;;;2.80;;
18931;SDS011;9598;50.954;3.112;2022-12-29T05:39:36;7.78;;;2.30;;
18931;SDS011;9598;50.954;3.112;2022-12-29T05:44:40;11.30;;;3.33;;
18931;SDS011;9598;50.954;3.112;2022-12-29T05:49:50;11.93;;;3.67;;
18931;SDS011;9598;50.954;3.112;2022-12-29T05:55:07;12.10;;;2.90;;
18931;SDS011;9598;50.954;3.112;2022-12-29T06:00:11;11.55;;;2.88;;
18931;SDS011;9598;50.954;3.112;2022-12-29T06:05:19;11.10;;;3.47;;
18931;SDS011;9598;50.954;3.112;2022-12-29T06:10:23;13.52;;;3.05;;
18931;SDS011;9598;50.954;3.112;2022-12-29T06:15:33;13.07;;;3.03;;
18931;SDS011;9598;50.954;3.112;2022-12-29T06:20:39;8.95;;;2.53;;
18931;SDS011;9598;50.954;3.112;2022-12-29T06:25:43;9.18;;;3.28;;
18931;SDS011;9598;50.954;3.112;2022-12-29T06:30:46;14.10;;;3.53;;
18931;SDS011;9598;50.954;3.112;2022-12-29T06:35:48;10.88;;;3.45;;
18931;SDS011;9598;50.954;3.112;2022-12-29T06:40:52;9.90;;;2.88;;
18931;SDS011;9598;50.954;3.112;2022-12-29T06:46:13;8.30;;;2.88;;
18931;SDS011;9598;50.954;3.112;2022-12-29T06:51:15;13.00;;;2.97;;
18931;SDS011;9598;50.954;3.112;2022-12-29T06:56:19;8.60;;;3.08;;
18931;SDS011;9598;50.954;3.112;2022-12-29T07:01:21;10.93;;;2.97;;
18931;SDS011;9598;50.954;3.112;2022-12-29T07:06:23;8.60;;;2.83;;
18931;SDS011;9598;50.954;3.112;2022-12-29T07:11:27;12.45;;;3.67;;
18931;SDS011;9598;50.954;3.112;2022-12-29T07:16:29;12.35;;;3.30;;
18931;SDS011;9598;50.954;3.112;2022-12-29T07:21:31;10.57;;;2.85;;
18931;SDS011;9598;50.954;3.112;2022-12-29T07:26:34;11.98;;;4.15;;
18931;SDS011;9598;50.954;3.112;2022-12-29T07:31:37;11.80;;;3.47;;
18931;SDS011;9598;50.954;3.112;2022-12-29T07:36:39;12.15;;;2.53;;
18931;SDS011;9598;50.954;3.112;2022-12-29T07:41:42;10.48;;;3.45;;
18931;SDS011;9598;50.954;3.112;2022-12-29T07:46:50;9.95;;;3.30;;
18931;SDS011;9598;50.954;3.112;2022-12-29T07:51:53;10.60;;;2.92;;
18931;SDS011;9598;50.954;3.112;2022-12-29T07:56:56;5.95;;;2.50;;
18931;SDS011;9598;50.954;3.112;2022-12-29T08:02:00;8.32;;;2.58;;
18931;SDS011;9598;50.954;3.112;2022-12-29T08:07:02;12.88;;;3.60;;
18931;SDS011;9598;50.954;3.112;2022-12-29T08:12:07;11.18;;;3.33;;
18931;SDS011;9598;50.954;3.112;2022-12-29T08:17:10;14.13;;;3.67;;
18931;SDS011;9598;50.954;3.112;2022-12-29T08:22:13;11.43;;;3.08;;
18931;SDS011;9598;50.954;3.112;2022-12-29T08:27:17;10.70;;;3.60;;
18931;SDS011;9598;50.954;3.112;2022-12-29T08:32:19;10.45;;;3.55;;
18931;SDS011;9598;50.954;3.112;2022-12-29T08:37:22;13.88;;;3.88;;
18931;SDS011;9598;50.954;3.112;2022-12-29T08:42:25;11.70;;;3.30;;
18931;SDS011;9598;50.954;3.112;2022-12-29T08:47:31;14.82;;;4.03;;
18931;SDS011;9598;50.954;3.112;2022-12-29T08:52:33;11.05;;;4.10;;
18931;SDS011;9598;50.954;3.112;2022-12-29T08:57:36;16.00;;;3.80;;
18931;SDS011;9598;50.954;3.112;2022-12-29T09:02:48;14.73;;;4.00;;
18931;SDS011;9598;50.954;3.112;2022-12-29T09:07:50;19.85;;;4.97;;
18931;SDS011;9598;50.954;3.112;2022-12-29T09:12:54;16.45;;;5.25;;
18931;SDS011;9598;50.954;3.112;2022-12-29T09:17:56;14.75;;;4.05;;
18931;SDS011;9598;50.954;3.112;2022-12-29T09:22:58;16.15;;;4.15;;
18931;SDS011;9598;50.954;3.112;2022-12-29T09:28:02;16.90;;;3.88;;
18931;SDS011;9598;50.954;3.112;2022-12-29T09:33:07;13.45;;;3.35;;
18931;SDS011;9598;50.954;3.112;2022-12-29T09:38:10;14.05;;;3.78;;
18931;SDS011;9598;50.954;3.112;2022-12-29T09:48:47;19.20;;;4.30;;
18931;SDS011;9598;50.954;3.112;2022-12-29T09:53:55;13.73;;;4.03;;
18931;SDS011;9598;50.954;3.112;2022-12-29T09:59:02;14.75;;;4.18;;
18931;SDS011;9598;50.954;3.112;2022-12-29T10:04:08;14.38;;;3.58;;
18931;SDS011;9598;50.954;3.112;2022-12-29T10:09:12;14.27;;;3.78;;
18931;SDS011;9598;50.954;3.112;2022-12-29T10:14:26;11.10;;;3.83;;
18931;SDS011;9598;50.954;3.112;2022-12-29T10:19:50;12.90;;;3.88;;
18931;SDS011;9598;50.954;3.112;2022-12-29T10:25:10;10.23;;;2.83;;
18931;SDS011;9598;50.954;3.112;2022-12-29T10:30:18;10.02;;;2.42;;
18931;SDS011;9598;50.954;3.112;2022-12-29T10:35:21;12.65;;;2.90;;
18931;SDS011;9598;50.954;3.112;2022-12-29T10:40:25;4.90;;;2.63;;
18931;SDS011;9598;50.954;3.112;2022-12-29T10:45:32;10.98;;;2.50;;
18931;SDS011;9598;50.954;3.112;2022-12-29T10:50:37;6.03;;;2.13;;
18931;SDS011;9598;50.954;3.112;2022-12-29T10:55:43;8.77;;;2.90;;
18931;SDS011;9598;50.954;3.112;2022-12-29T11:00:49;11.80;;;3.30;;
18931;SDS011;9598;50.954;3.112;2022-12-29T11:05:54;11.82;;;3.13;;
18931;SDS011;9598;50.954;3.112;2022-12-29T11:10:59;12.07;;;3.28;;
18931;SDS011;9598;50.954;3.112;2022-12-29T11:16:04;10.20;;;3.08;;
18931;SDS011;9598;50.954;3.112;2022-12-29T11:21:09;13.45;;;3.58;;
18931;SDS011;9598;50.954;3.112;2022-12-29T11:26:27;12.30;;;4.00;;
18931;SDS011;9598;50.954;3.112;2022-12-29T11:31:33;10.05;;;3.58;;
18931;SDS011;9598;50.954;3.112;2022-12-29T11:36:42;19.05;;;4.32;;
18931;SDS011;9598;50.954;3.112;2022-12-29T11:41:50;16.58;;;3.40;;
18931;SDS011;9598;50.954;3.112;2022-12-29T11:46:55;14.65;;;3.70;;
18931;SDS011;9598;50.954;3.112;2022-12-29T11:51:57;6.78;;;2.97;;
18931;SDS011;9598;50.954;3.112;2022-12-29T11:57:08;7.57;;;2.35;;
18931;SDS011;9598;50.954;3.112;2022-12-29T12:07:42;8.82;;;2.78;;
18931;SDS011;9598;50.954;3.112;2022-12-29T12:12:47;6.13;;;2.28;;
18931;SDS011;9598;50.954;3.112;2022-12-29T12:17:57;4.15;;;1.48;;
18931;SDS011;9598;50.954;3.112;2022-12-29T12:23:07;6.00;;;1.95;;
18931;SDS011;9598;50.954;3.112;2022-12-29T12:28:20;7.07;;;1.80;;
18931;SDS011;9598;50.954;3.112;2022-12-29T12:33:29;11.88;;;2.28;;
18931;SDS011;9598;50.954;3.112;2022-12-29T12:38:36;11.63;;;2.85;;
18931;SDS011;9598;50.954;3.112;2022-12-29T12:43:49;7.25;;;2.10;;
18931;SDS011;9598;50.954;3.112;2022-12-29T12:54:25;4.88;;;1.73;;
18931;SDS011;9598;50.954;3.112;2022-12-29T12:59:38;5.47;;;1.77;;
18931;SDS011;9598;50.954;3.112;2022-12-29T13:05:02;3.58;;;1.45;;
18931;SDS011;9598;50.954;3.112;2022-12-29T13:10:28;5.38;;;1.40;;
18931;SDS011;9598;50.954;3.112;2022-12-29T13:15:40;5.60;;;1.48;;
18931;SDS011;9598;50.954;3.112;2022-12-29T13:20:49;3.63;;;1.13;;
18931;SDS011;9598;50.954;3.112;2022-12-29T13:25:59;4.43;;;1.58;;
18931;SDS011;9598;50.954;3.112;2022-12-29T13:31:09;5.50;;;1.40;;
18931;SDS011;9598;50.954;3.112;2022-12-29T13:36:21;4.68;;;1.83;;
18931;SDS011;9598;50.954;3.112;2022-12-29T13:41:27;7.40;;;1.85;;
18931;SDS011;9598;50.954;3.112;2022-12-29T13:46:34;7.55;;;1.50;;
18931;SDS011;9598;50.954;3.112;2022-12-29T13:51:42;4.38;;;1.67;;
18931;SDS011;9598;50.954;3.112;2022-12-29T13:56:51;3.38;;;1.20;;
18931;SDS011;9598;50.954;3.112;2022-12-29T14:01:58;3.45;;;1.60;;
18931;SDS011;9598;50.954;3.112;2022-12-29T14:07:05;5.65;;;1.50;;
18931;SDS011;9598;50.954;3.112;2022-12-29T14:12:27;5.57;;;1.55;;
18931;SDS011;9598;50.954;3.112;2022-12-29T14:17:32;5.32;;;2.08;;
18931;SDS011;9598;50.954;3.112;2022-12-29T14:22:36;8.43;;;2.28;;
18931;SDS011;9598;50.954;3.112;2022-12-29T14:27:58;8.07;;;2.03;;
18931;SDS011;9598;50.954;3.112;2022-12-29T14:33:16;6.28;;;2.60;;
18931;SDS011;9598;50.954;3.112;2022-12-29T14:38:21;9.23;;;2.60;;
18931;SDS011;9598;50.954;3.112;2022-12-29T14:43:27;9.95;;;2.53;;
18931;SDS011;9598;50.954;3.112;2022-12-29T14:48:32;5.25;;;2.38;;
18931;SDS011;9598;50.954;3.112;2022-12-29T14:53:43;7.57;;;1.98;;
18931;SDS011;9598;50.954;3.112;2022-12-29T14:58:48;8.98;;;2.78;;
18931;SDS011;9598;50.954;3.112;2022-12-29T15:03:54;7.68;;;2.42;;
18931;SDS011;9598;50.954;3.112;2022-12-29T15:09:03;6.18;;;1.80;;
18931;SDS011;9598;50.954;3.112;2022-12-29T15:19:49;7.53;;;2.38;;
18931;SDS011;9598;50.954;3.112;2022-12-29T15:24:53;6.93;;;2.10;;
18931;SDS011;9598;50.954;3.112;2022-12-29T15:29:57;6.68;;;2.25;;
18931;SDS011;9598;50.954;3.112;2022-12-29T15:35:13;10.73;;;2.47;;
18931;SDS011;9598;50.954;3.112;2022-12-29T15:40:26;14.25;;;2.83;;
18931;SDS011;9598;50.954;3.112;2022-12-29T15:45:30;13.23;;;3.45;;
18931;SDS011;9598;50.954;3.112;2022-12-29T15:50:35;12.25;;;3.38;;
18931;SDS011;9598;50.954;3.112;2022-12-29T15:55:40;10.75;;;4.13;;
18931;SDS011;9598;50.954;3.112;2022-12-29T16:00:46;12.40;;;3.42;;
18931;SDS011;9598;50.954;3.112;2022-12-29T16:05:50;9.38;;;2.88;;
18931;SDS011;9598;50.954;3.112;2022-12-29T16:10:56;14.25;;;3.40;;
18931;SDS011;9598;50.954;3.112;2022-12-29T16:16:00;11.40;;;3.03;;
18931;SDS011;9598;50.954;3.112;2022-12-29T16:21:05;11.77;;;3.38;;
18931;SDS011;9598;50.954;3.112;2022-12-29T16:26:20;9.63;;;3.28;;
18931;SDS011;9598;50.954;3.112;2022-12-29T16:31:24;14.15;;;4.13;;
18931;SDS011;9598;50.954;3.112;2022-12-29T16:36:33;11.95;;;4.05;;
18931;SDS011;9598;50.954;3.112;2022-12-29T16:41:43;11.68;;;3.67;;
18931;SDS011;9598;50.954;3.112;2022-12-29T16:46:56;11.38;;;3.67;;
18931;SDS011;9598;50.954;3.112;2022-12-29T16:52:01;13.35;;;3.63;;
18931;SDS011;9598;50.954;3.112;2022-12-29T16:57:15;11.82;;;4.07;;
18931;SDS011;9598;50.954;3.112;2022-12-29T17:02:27;9.57;;;3.65;;
18931;SDS011;9598;50.954;3.112;2022-12-29T17:07:31;12.00;;;3.55;;
18931;SDS011;9598;50.954;3.112;2022-12-29T17:12:35;15.90;;;4.38;;
18931;SDS011;9598;50.954;3.112;2022-12-29T17:17:38;13.27;;;3.70;;
18931;SDS011;9598;50.954;3.112;2022-12-29T17:22:42;12.60;;;3.58;;
18931;SDS011;9598;50.954;3.112;2022-12-29T17:27:47;14.38;;;4.15;;
18931;SDS011;9598;50.954;3.112;2022-12-29T17:32:53;10.95;;;3.70;;
18931;SDS011;9598;50.954;3.112;2022-12-29T17:37:58;16.27;;;4.38;;
18931;SDS011;9598;50.954;3.112;2022-12-29T17:43:01;10.93;;;3.85;;
18931;SDS011;9598;50.954;3.112;2022-12-29T17:48:04;10.55;;;3.50;;
18931;SDS011;9598;50.954;3.112;2022-12-29T17:53:13;12.45;;;3.85;;
18931;SDS011;9598;50.954;3.112;2022-12-29T17:58:19;5.22;;;2.25;;
18931;SDS011;9598;50.954;3.112;2022-12-29T18:03:24;11.80;;;3.85;;
18931;SDS011;9598;50.954;3.112;2022-12-29T18:08:28;9.30;;;3.50;;
18931;SDS011;9598;50.954;3.112;2022-12-29T18:13:33;6.35;;;2.75;;
18931;SDS011;9598;50.954;3.112;2022-12-29T18:18:35;8.80;;;3.42;;
18931;SDS011;9598;50.954;3.112;2022-12-29T18:23:37;9.15;;;3.28;;
18931;SDS011;9598;50.954;3.112;2022-12-29T18:28:40;8.93;;;3.30;;
18931;SDS011;9598;50.954;3.112;2022-12-29T18:33:43;6.88;;;2.70;;
18931;SDS011;9598;50.954;3.112;2022-12-29T18:38:46;6.63;;;2.83;;
18931;SDS011;9598;50.954;3.112;2022-12-29T18:43:49;12.68;;;3.20;;
18931;SDS011;9598;50.954;3.112;2022-12-29T18:48:52;10.43;;;2.55;;
18931;SDS011;9598;50.954;3.112;2022-12-29T18:53:54;7.22;;;3.50;;
18931;SDS011;9598;50.954;3.112;2022-12-29T18:58:57;7.32;;;2.67;;
18931;SDS011;9598;50.954;3.112;2022-12-29T19:03:59;4.28;;;2.05;;
18931;SDS011;9598;50.954;3.112;2022-12-29T19:09:01;7.68;;;2.72;;
18931;SDS011;9598;50.954;3.112;2022-12-29T19:14:07;10.88;;;3.00;;
18931;SDS011;9598;50.954;3.112;2022-12-29T19:19:15;11.20;;;2.97;;
18931;SDS011;9598;50.954;3.112;2022-12-29T19:24:17;7.85;;;2.80;;
18931;SDS011;9598;50.954;3.112;2022-12-29T19:29:20;8.75;;;3.45;;
18931;SDS011;9598;50.954;3.112;2022-12-29T19:34:23;12.38;;;3.38;;
18931;SDS011;9598;50.954;3.112;2022-12-29T19:39:25;7.25;;;3.10;;
18931;SDS011;9598;50.954;3.112;2022-12-29T19:44:30;11.55;;;3.00;;
18931;SDS011;9598;50.954;3.112;2022-12-29T19:49:32;12.35;;;3.15;;
18931;SDS011;9598;50.954;3.112;2022-12-29T19:54:35;10.43;;;3.72;;
18931;SDS011;9598;50.954;3.112;2022-12-29T19:59:38;7.65;;;3.50;;
18931;SDS011;9598;50.954;3.112;2022-12-29T20:04:40;7.65;;;2.70;;
18931;SDS011;9598;50.954;3.112;2022-12-29T20:09:43;6.20;;;2.78;;
18931;SDS011;9598;50.954;3.112;2022-12-29T20:14:48;6.38;;;2.72;;
18931;SDS011;9598;50.954;3.112;2022-12-29T20:19:51;5.82;;;2.03;;
18931;SDS011;9598;50.954;3.112;2022-12-29T20:24:53;6.97;;;2.28;;
18931;SDS011;9598;50.954;3.112;2022-12-29T20:29:57;5.18;;;2.28;;
18931;SDS011;9598;50.954;3.112;2022-12-29T20:34:59;6.82;;;2.13;;
18931;SDS011;9598;50.954;3.112;2022-12-29T20:40:01;4.70;;;2.10;;
18931;SDS011;9598;50.954;3.112;2022-12-29T20:45:05;7.68;;;2.80;;
18931;SDS011;9598;50.954;3.112;2022-12-29T20:50:07;7.80;;;2.42;;
18931;SDS011;9598;50.954;3.112;2022-12-29T20:55:09;7.55;;;2.35;;
18931;SDS011;9598;50.954;3.112;2022-12-29T21:00:13;5.95;;;2.08;;
18931;SDS011;9598;50.954;3.112;2022-12-29T21:05:16;5.78;;;1.90;;
18931;SDS011;9598;50.954;3.112;2022-12-29T21:10:18;6.20;;;2.63;;
18931;SDS011;9598;50.954;3.112;2022-12-29T21:15:23;5.35;;;1.67;;
18931;SDS011;9598;50.954;3.112;2022-12-29T21:20:25;5.28;;;2.28;;
18931;SDS011;9598;50.954;3.112;2022-12-29T21:25:31;5.32;;;2.88;;
18931;SDS011;9598;50.954;3.112;2022-12-29T21:30:38;4.45;;;1.90;;
18931;SDS011;9598;50.954;3.112;2022-12-29T21:35:41;5.90;;;2.60;;
18931;SDS011;9598;50.954;3.112;2022-12-29T21:40:43;6.70;;;1.63;;
18931;SDS011;9598;50.954;3.112;2022-12-29T21:45:49;4.53;;;1.70;;
18931;SDS011;9598;50.954;3.112;2022-12-29T21:50:52;6.72;;;2.20;;
18931;SDS011;9598;50.954;3.112;2022-12-29T21:56:15;5.90;;;1.90;;
18931;SDS011;9598;50.954;3.112;2022-12-29T22:01:20;4.72;;;1.60;;
18931;SDS011;9598;50.954;3.112;2022-12-29T22:06:40;6.55;;;2.08;;
18931;SDS011;9598;50.954;3.112;2022-12-29T22:11:59;7.60;;;2.00;;
18931;SDS011;9598;50.954;3.112;2022-12-29T22:17:20;7.53;;;2.10;;
18931;SDS011;9598;50.954;3.112;2022-12-29T22:22:23;11.10;;;2.38;;
18931;SDS011;9598;50.954;3.112;2022-12-29T22:27:25;12.43;;;2.92;;
18931;SDS011;9598;50.954;3.112;2022-12-29T22:32:28;11.50;;;2.60;;
18931;SDS011;9598;50.954;3.112;2022-12-29T22:37:31;15.32;;;2.95;;
18931;SDS011;9598;50.954;3.112;2022-12-29T22:42:34;9.52;;;3.03;;
18931;SDS011;9598;50.954;3.112;2022-12-29T22:47:37;9.20;;;2.70;;
18931;SDS011;9598;50.954;3.112;2022-12-29T22:52:40;14.57;;;3.20;;
18931;SDS011;9598;50.954;3.112;2022-12-29T22:57:42;7.20;;;2.60;;
18931;SDS011;9598;50.954;3.112;2022-12-29T23:02:45;9.75;;;3.50;;
18931;SDS011;9598;50.954;3.112;2022-12-29T23:07:47;10.75;;;3.85;;
18931;SDS011;9598;50.954;3.112;2022-12-29T23:12:50;14.50;;;3.95;;
18931;SDS011;9598;50.954;3.112;2022-12-29T23:17:53;13.60;;;3.40;;
18931;SDS011;9598;50.954;3.112;2022-12-29T23:22:55;9.98;;;3.10;;
18931;SDS011;9598;50.954;3.112;2022-12-29T23:27:57;8.48;;;2.92;;
18931;SDS011;9598;50.954;3.112;2022-12-29T23:33:01;12.32;;;3.97;;
18931;SDS011;9598;50.954;3.112;2022-12-29T23:38:03;11.68;;;3.35;;
18931;SDS011;9598;50.954;3.112;2022-12-29T23:43:05;12.35;;;3.65;;
18931;SDS011;9598;50.954;3.112;2022-12-29T23:48:08;10.45;;;3.45;;
18931;SDS011;9598;50.954;3.112;2022-12-29T23:53:11;10.63;;;3.42;;
18931;SDS011;9598;50.954;3.112;2022-12-29T23:58:13;9.55;;;3.08;;
